Time;durP1;ratioP1;P1;durP2;ratioP2;P2;SDS_P1;SDS_P2;PMS_P1;PMS_P2;Temp;Humidity;BMP_temperature;BMP_pressure;BME280_temperature;BME280_humidity;BME280_pressure;Samples;Min_cycle;Max_cycle;Signal;HPM_P1;HPM_P2
2023/12/05 00:00:01;;;;;;;23.10;15.23;;;;;;;3.98;87.39;99767.00;5064879;28;20032;-78
2023/12/05 00:02:27;;;;;;;23.25;14.75;;;;;;;4.01;87.70;99760.81;5062644;28;20078;-78
2023/12/05 00:04:52;;;;;;;26.70;17.42;;;;;;;4.00;87.58;99754.72;5063210;28;20033;-77
2023/12/05 00:07:19;;;;;;;26.77;16.35;;;;;;;4.00;87.87;99765.19;5062309;28;20033;-77
2023/12/05 00:09:44;;;;;;;28.27;17.30;;;;;;;4.01;87.87;99755.56;5062969;28;20059;-77
2023/12/05 00:12:10;;;;;;;25.73;15.93;;;;;;;4.06;87.96;99761.56;5062791;28;20044;-77
2023/12/05 00:14:35;;;;;;;25.38;15.98;;;;;;;4.06;87.95;99754.56;5056641;28;20025;-77
2023/12/05 00:17:01;;;;;;;26.25;16.50;;;;;;;4.07;87.85;99758.88;5056946;28;20032;-77
2023/12/05 00:19:26;;;;;;;25.05;15.75;;;;;;;4.08;87.68;99757.97;5056557;28;20028;-78
2023/12/05 00:21:51;;;;;;;27.88;16.17;;;;;;;4.04;87.98;99756.34;5068852;28;20056;-78
2023/12/05 00:24:17;;;;;;;24.08;15.07;;;;;;;4.07;87.99;99750.19;5061457;28;20024;-78
2023/12/05 00:26:42;;;;;;;26.13;15.52;;;;;;;4.05;88.15;99747.59;5063858;28;21456;-77
2023/12/05 00:29:07;;;;;;;27.60;16.02;;;;;;;4.04;88.19;99742.41;5055568;28;20439;-77
2023/12/05 00:31:33;;;;;;;28.15;16.38;;;;;;;4.04;88.87;99745.88;5051573;28;20042;-77
2023/12/05 00:33:58;;;;;;;26.23;15.88;;;;;;;4.05;88.35;99746.75;5056818;28;20021;-77
2023/12/05 00:36:23;;;;;;;24.75;16.23;;;;;;;4.07;88.27;99742.34;5052845;28;20074;-77
2023/12/05 00:38:49;;;;;;;30.63;16.80;;;;;;;4.05;88.37;99738.88;5059101;28;20468;-77
2023/12/05 00:41:14;;;;;;;26.15;15.77;;;;;;;4.09;88.46;99740.50;5057593;28;20088;-77
2023/12/05 00:43:39;;;;;;;23.38;15.52;;;;;;;4.09;88.45;99735.28;5061553;28;20025;-73
2023/12/05 00:46:05;;;;;;;29.83;16.48;;;;;;;4.09;88.30;99732.66;5057683;28;20109;-73
2023/12/05 00:48:30;;;;;;;27.33;15.32;;;;;;;4.09;88.36;99740.50;5061983;28;20445;-73
2023/12/05 00:50:56;;;;;;;27.05;16.20;;;;;;;4.07;88.41;99737.09;5065570;28;20471;-73
2023/12/05 00:53:21;;;;;;;30.80;17.95;;;;;;;4.06;88.75;99744.09;5065325;28;20063;-73
2023/12/05 00:55:46;;;;;;;25.92;16.40;;;;;;;4.07;88.78;99737.97;5064419;28;20029;-73
2023/12/05 00:58:13;;;;;;;25.42;16.20;;;;;;;4.13;88.65;99738.66;5055911;28;20032;-73
2023/12/05 01:00:38;;;;;;;27.05;17.08;;;;;;;4.11;88.96;99738.72;5062185;28;20024;-73
2023/12/05 01:03:04;;;;;;;29.25;17.52;;;;;;;4.13;89.04;99741.28;5061502;28;20060;-73
2023/12/05 01:05:29;;;;;;;26.95;16.88;;;;;;;4.19;88.86;99743.69;5056446;28;20051;-73
2023/12/05 01:07:54;;;;;;;29.13;17.83;;;;;;;4.17;88.54;99735.06;5057333;28;20123;-73
2023/12/05 01:10:20;;;;;;;27.13;16.27;;;;;;;4.16;88.92;99731.59;5056110;28;20052;-73
2023/12/05 01:12:45;;;;;;;29.15;16.52;;;;;;;4.18;88.75;99737.59;5057833;28;20067;-73
2023/12/05 01:15:11;;;;;;;31.58;17.92;;;;;;;4.16;89.01;99735.97;5055922;28;20094;-77
2023/12/05 01:17:36;;;;;;;28.15;17.13;;;;;;;4.16;89.40;99736.81;5052618;28;20031;-77
2023/12/05 01:20:06;;;;;;;27.85;16.08;;;;;;;4.19;88.98;99733.22;5056153;28;20121;-78
2023/12/05 01:22:31;;;;;;;30.85;18.17;;;;;;;4.15;89.14;99723.75;5057906;28;20078;-77
2023/12/05 01:24:57;;;;;;;26.60;16.38;;;;;;;4.17;88.99;99730.66;5057731;28;20460;-78
2023/12/05 01:27:22;;;;;;;30.40;16.83;;;;;;;4.30;88.73;99723.28;5056480;28;20028;-78
2023/12/05 01:29:48;;;;;;;26.38;16.25;;;;;;;4.27;88.45;99713.78;5055362;28;20025;-77
2023/12/05 01:32:14;;;;;;;29.45;16.98;;;;;;;4.26;88.84;99717.28;5054276;28;20013;-77
2023/12/05 01:34:39;;;;;;;29.00;17.13;;;;;;;4.30;88.50;99718.91;5055860;28;20021;-77
2023/12/05 01:37:05;;;;;;;26.92;16.83;;;;;;;4.25;89.08;99715.59;5060417;28;20333;-77
2023/12/05 01:39:30;;;;;;;29.95;16.63;;;;;;;4.34;88.42;99719.69;5060303;28;20036;-77
2023/12/05 01:41:57;;;;;;;29.08;18.15;;;;;;;4.32;88.68;99718.84;5060134;28;20711;-76
2023/12/05 01:44:23;;;;;;;26.17;16.92;;;;;;;4.27;88.78;99719.00;5059317;28;20036;-77
2023/12/05 01:46:48;;;;;;;27.63;16.50;;;;;;;4.27;89.01;99724.22;5057108;28;20029;-76
2023/12/05 01:49:13;;;;;;;29.08;17.75;;;;;;;4.29;89.04;99719.81;5060069;28;20017;-76
2023/12/05 01:51:39;;;;;;;27.17;16.45;;;;;;;4.28;89.04;99719.84;5057504;28;20035;-77
2023/12/05 01:54:05;;;;;;;30.52;17.13;;;;;;;4.34;88.73;99728.38;5057307;28;20055;-73
2023/12/05 01:56:31;;;;;;;30.20;17.35;;;;;;;4.29;89.03;99722.44;5058608;28;20072;-72
2023/12/05 01:58:57;;;;;;;27.35;17.45;;;;;;;4.34;89.17;99732.75;5055318;28;20036;-73
2023/12/05 02:01:22;;;;;;;29.08;17.48;;;;;;;4.37;88.86;99737.03;5060279;28;20036;-73
2023/12/05 02:03:49;;;;;;;31.33;17.90;;;;;;;4.38;88.67;99742.19;5058959;28;20407;-73
2023/12/05 02:06:18;;;;;;;29.02;17.23;;;;;;;4.40;88.65;99734.31;5061183;28;20043;-73
2023/12/05 02:08:45;;;;;;;30.70;18.00;;;;;;;4.40;88.39;99731.69;5052884;28;20029;-73
2023/12/05 02:11:11;;;;;;;29.77;16.95;;;;;;;4.41;88.42;99733.41;5060076;28;20033;-73
2023/12/05 02:13:37;;;;;;;30.58;18.85;;;;;;;4.46;88.60;99742.81;5058648;28;20107;-73
2023/12/05 02:16:28;;;;;;;28.85;18.30;;;;;;;4.48;88.77;99741.00;5063582;28;20120;-73
2023/12/05 02:19:21;;;;;;;31.77;18.25;;;;;;;4.51;88.42;99743.50;5059548;28;20048;-72
2023/12/05 02:21:51;;;;;;;30.38;17.08;;;;;;;4.47;88.42;99736.66;5056441;28;20556;-73
2023/12/05 02:24:50;;;;;;;28.10;17.73;;;;;;;4.49;88.43;99737.47;5061800;28;20035;-73
2023/12/05 02:27:21;;;;;;;28.98;17.63;;;;;;;4.52;88.48;99733.88;5061649;28;20044;-72
2023/12/05 02:29:49;;;;;;;30.00;17.80;;;;;;;4.52;88.61;99733.88;5055170;28;20086;-72
2023/12/05 02:32:14;;;;;;;28.60;17.30;;;;;;;4.55;88.34;99739.03;5065421;28;20031;-72
2023/12/05 02:34:39;;;;;;;32.58;17.73;;;;;;;4.53;88.44;99739.09;5062898;28;20028;-76
2023/12/05 02:37:19;;;;;;;31.83;17.80;;;;;;;4.55;88.67;99734.66;5061169;28;20375;-75
2023/12/05 02:39:54;;;;;;;28.83;17.55;;;;;;;4.53;88.93;99739.09;5052908;28;20020;-75
2023/12/05 02:42:23;;;;;;;31.67;18.02;;;;;;;4.54;88.75;99732.94;5061210;28;20365;-75
2023/12/05 02:44:51;;;;;;;30.67;17.17;;;;;;;4.55;88.68;99721.56;5060183;28;20119;-72
2023/12/05 02:47:21;;;;;;;30.17;17.90;;;;;;;4.57;88.57;99725.00;5061821;28;20032;-72
2023/12/05 02:49:47;;;;;;;29.92;17.77;;;;;;;4.57;88.49;99725.00;5054142;28;20100;-72
2023/12/05 02:52:12;;;;;;;28.13;17.40;;;;;;;4.58;88.34;99726.72;5065392;28;20104;-72
2023/12/05 02:54:38;;;;;;;30.55;17.27;;;;;;;4.62;88.55;99727.47;5059543;28;20021;-72
2023/12/05 02:57:03;;;;;;;33.00;18.40;;;;;;;4.58;88.72;99737.19;5060551;28;20045;-72
2023/12/05 02:59:29;;;;;;;31.17;18.27;;;;;;;4.56;88.98;99728.50;5056330;28;20169;-72
2023/12/05 03:01:54;;;;;;;32.53;18.25;;;;;;;4.58;88.61;99728.47;5060526;28;20031;-72
2023/12/05 03:04:20;;;;;;;30.55;17.60;;;;;;;4.56;88.93;99720.66;5059894;28;20040;-76
2023/12/05 03:06:45;;;;;;;28.20;17.73;;;;;;;4.59;88.85;99719.72;5060807;28;20036;-76
2023/12/05 03:09:10;;;;;;;32.15;18.33;;;;;;;4.60;89.04;99718.78;5064834;28;20027;-75
2023/12/05 03:11:36;;;;;;;33.10;18.90;;;;;;;4.62;88.73;99714.38;5062419;28;20028;-75
2023/12/05 03:14:03;;;;;;;33.88;19.52;;;;;;;4.63;89.04;99710.84;5059200;28;20475;-75
2023/12/05 03:16:29;;;;;;;31.70;18.35;;;;;;;4.68;88.77;99715.94;5064459;28;20043;-75
2023/12/05 03:18:55;;;;;;;32.38;18.13;;;;;;;4.68;88.84;99713.31;5065499;28;20024;-75
2023/12/05 03:21:21;;;;;;;31.23;18.15;;;;;;;4.68;88.56;99710.69;5061390;28;20021;-75
2023/12/05 03:23:46;;;;;;;30.52;19.27;;;;;;;4.68;88.72;99708.06;5049916;28;20063;-75
2023/12/05 03:26:21;;;;;;;29.70;18.38;;;;;;;4.68;89.08;99708.94;5055508;28;20021;-75
2023/12/05 03:28:48;;;;;;;32.97;18.70;;;;;;;4.69;88.94;99709.78;5063596;28;20040;-75
2023/12/05 03:31:14;;;;;;;30.35;18.30;;;;;;;4.70;89.09;99714.09;5058017;28;20017;-76
2023/12/05 03:33:42;;;;;;;30.67;19.02;;;;;;;4.68;89.04;99710.69;5057761;28;20040;-75
2023/12/05 03:36:07;;;;;;;29.13;18.02;;;;;;;4.65;89.12;99711.63;5057771;28;20017;-75
2023/12/05 03:38:33;;;;;;;29.88;18.23;;;;;;;4.63;89.23;99712.63;5057097;28;20020;-75
2023/12/05 03:40:58;;;;;;;31.00;19.23;;;;;;;4.66;89.32;99710.72;5062600;28;20491;-75
2023/12/05 03:43:24;;;;;;;31.90;18.77;;;;;;;4.64;89.22;99707.31;5066928;28;20031;-76
2023/12/05 03:45:49;;;;;;;32.05;18.92;;;;;;;4.68;89.49;99715.94;5058196;28;20028;-75
2023/12/05 03:48:15;;;;;;;33.53;19.65;;;;;;;4.70;89.10;99725.41;5061511;28;20025;-76
2023/12/05 03:50:40;;;;;;;33.83;19.35;;;;;;;4.69;89.17;99726.34;5062093;28;20494;-75
2023/12/05 03:53:05;;;;;;;33.85;19.83;;;;;;;4.70;89.48;99725.41;5057125;28;20032;-75
2023/12/05 03:55:34;;;;;;;31.90;18.73;;;;;;;4.72;89.33;99722.78;5068100;28;20069;-75
2023/12/05 03:58:00;;;;;;;32.80;19.30;;;;;;;4.73;89.37;99719.25;5054215;28;20511;-76
2023/12/05 04:00:25;;;;;;;31.75;19.25;;;;;;;4.70;89.16;99724.56;5055744;28;20036;-75
2023/12/05 04:02:51;;;;;;;32.95;19.02;;;;;;;4.71;89.43;99728.88;5059549;28;20028;-76
2023/12/05 04:05:16;;;;;;;35.58;19.50;;;;;;;4.73;89.46;99730.56;5064803;28;20031;-75
2023/12/05 04:07:42;;;;;;;34.25;19.58;;;;;;;4.74;89.57;99731.41;5060778;28;20078;-75
2023/12/05 04:10:09;;;;;;;36.03;19.85;;;;;;;4.73;89.52;99742.81;5059366;28;20020;-76
2023/12/05 04:12:34;;;;;;;34.83;19.15;;;;;;;4.75;89.29;99739.22;5064799;28;20025;-75
2023/12/05 04:15:00;;;;;;;32.63;18.80;;;;;;;4.74;89.55;99745.34;5063882;28;20040;-76
2023/12/05 04:17:25;;;;;;;36.10;20.58;;;;;;;4.74;89.62;99740.13;5052184;28;20034;-75
2023/12/05 04:19:50;;;;;;;33.33;19.25;;;;;;;4.76;89.58;99748.78;5055326;28;20032;-76
2023/12/05 04:22:16;;;;;;;35.13;20.02;;;;;;;4.78;89.41;99753.97;5057248;28;20033;-76
2023/12/05 04:24:41;;;;;;;36.20;20.42;;;;;;;4.79;89.39;99755.69;5056836;28;20037;-76
2023/12/05 04:27:06;;;;;;;33.83;19.20;;;;;;;4.80;89.53;99760.00;5060036;28;20028;-75
2023/12/05 04:29:32;;;;;;;32.53;18.77;;;;;;;4.80;89.45;99752.16;5063855;28;20028;-76
2023/12/05 04:31:59;;;;;;;34.25;19.48;;;;;;;4.80;89.06;99747.78;5062615;28;20905;-76
2023/12/05 04:34:24;;;;;;;34.13;19.25;;;;;;;4.80;89.34;99752.16;5057471;28;20460;-75
2023/12/05 04:36:50;;;;;;;34.28;18.60;;;;;;;4.80;89.57;99753.03;5061792;28;20025;-76
2023/12/05 04:39:16;;;;;;;35.35;19.58;;;;;;;4.81;89.65;99753.88;5058166;28;20036;-76
2023/12/05 04:41:42;;;;;;;34.95;20.55;;;;;;;4.83;89.63;99755.53;5059973;28;20056;-76
2023/12/05 04:44:07;;;;;;;36.17;19.23;;;;;;;4.89;89.51;99761.44;5057332;28;20086;-75
2023/12/05 04:46:37;;;;;;;33.85;20.17;;;;;;;4.84;89.51;99761.59;5063979;28;20446;-75
2023/12/05 04:49:02;;;;;;;34.35;19.83;;;;;;;4.86;89.52;99762.44;5062543;28;20049;-75
2023/12/05 04:51:28;;;;;;;35.80;20.60;;;;;;;4.86;89.36;99767.66;5061919;28;20384;-75
2023/12/05 04:53:53;;;;;;;35.17;19.88;;;;;;;4.80;89.72;99765.22;5056971;28;20082;-76
2023/12/05 04:56:18;;;;;;;34.97;19.92;;;;;;;4.83;89.81;99763.38;5066318;28;20055;-76
2023/12/05 04:58:44;;;;;;;35.35;19.20;;;;;;;4.84;89.81;99769.47;5060757;28;20060;-76
2023/12/05 05:01:09;;;;;;;36.92;19.75;;;;;;;4.87;89.76;99772.00;5065122;28;20058;-76
2023/12/05 05:03:35;;;;;;;34.85;19.48;;;;;;;4.96;89.35;99778.69;5062447;28;20511;-76
2023/12/05 05:06:00;;;;;;;36.72;18.90;;;;;;;4.88;89.74;99778.09;5060352;28;20060;-76
2023/12/05 05:08:25;;;;;;;31.25;18.85;;;;;;;4.88;89.50;99772.84;5056138;28;20056;-76
2023/12/05 05:10:51;;;;;;;32.90;19.85;;;;;;;4.89;89.63;99779.78;5062448;28;20028;-77
2023/12/05 05:13:19;;;;;;;31.08;18.67;;;;;;;4.97;89.37;99783.84;5062337;28;20384;-76
2023/12/05 05:15:46;;;;;;;31.60;18.60;;;;;;;4.99;89.46;99783.78;5062916;28;20032;-76
2023/12/05 05:18:11;;;;;;;32.40;18.38;;;;;;;5.00;89.20;99789.00;5064706;28;20044;-76
2023/12/05 05:20:36;;;;;;;38.90;20.75;;;;;;;5.00;89.33;99781.16;5066883;28;20020;-76
2023/12/05 05:23:03;;;;;;;34.67;18.60;;;;;;;4.98;89.40;99782.94;5058935;28;20781;-76
2023/12/05 05:25:28;;;;;;;34.88;18.50;;;;;;;4.97;89.81;99791.72;5061244;28;20525;-76
2023/12/05 05:27:54;;;;;;;33.20;18.27;;;;;;;4.96;89.64;99789.16;5059343;28;20030;-76
2023/12/05 05:30:19;;;;;;;34.67;18.75;;;;;;;4.93;90.05;99797.97;5062245;28;20326;-76
2023/12/05 05:32:45;;;;;;;37.42;19.92;;;;;;;4.93;89.90;99786.63;5063882;28;20029;-76
2023/12/05 05:35:10;;;;;;;34.78;19.67;;;;;;;4.93;89.79;99790.09;5059936;28;20017;-77
2023/12/05 05:37:36;;;;;;;32.83;18.42;;;;;;;4.97;90.03;99796.94;5058940;28;20174;-76
2023/12/05 05:40:02;;;;;;;33.13;18.52;;;;;;;4.96;89.94;99786.53;5063950;28;20561;-76
2023/12/05 05:42:27;;;;;;;33.17;18.85;;;;;;;4.95;90.02;99782.22;5067708;28;20060;-75
2023/12/05 05:44:53;;;;;;;32.28;18.90;;;;;;;4.96;90.04;99791.78;5061609;28;20119;-76
2023/12/05 05:47:18;;;;;;;32.78;19.02;;;;;;;5.00;89.93;99785.53;5067797;28;20369;-76
2023/12/05 05:49:43;;;;;;;34.72;20.02;;;;;;;5.09;89.71;99798.31;5071755;28;20055;-76
2023/12/05 05:52:09;;;;;;;35.97;18.75;;;;;;;5.09;89.68;99803.56;5066029;28;20386;-76
2023/12/05 05:54:34;;;;;;;32.72;18.65;;;;;;;5.09;89.34;99806.19;5065665;28;20048;-76
2023/12/05 05:56:59;;;;;;;33.55;18.13;;;;;;;5.12;89.45;99804.28;5060085;28;20079;-76
2023/12/05 05:59:25;;;;;;;35.42;18.42;;;;;;;5.12;89.47;99801.66;5063870;28;20036;-76
2023/12/05 06:01:50;;;;;;;34.63;18.65;;;;;;;5.14;89.51;99803.41;5059500;28;20082;-76
2023/12/05 06:04:15;;;;;;;33.92;17.35;;;;;;;5.15;89.60;99803.34;5065564;28;20027;-75
2023/12/05 06:06:41;;;;;;;34.30;18.08;;;;;;;5.17;89.72;99801.50;5072759;28;20032;-76
2023/12/05 06:09:06;;;;;;;33.55;18.30;;;;;;;5.14;89.53;99803.41;5060896;28;20029;-76
2023/12/05 06:11:31;;;;;;;34.20;18.17;;;;;;;5.13;89.61;99813.03;5065270;28;20490;-76
2023/12/05 06:13:57;;;;;;;34.80;18.70;;;;;;;5.08;89.94;99804.44;5062371;28;20035;-76
2023/12/05 06:16:22;;;;;;;36.45;18.98;;;;;;;5.10;90.25;99810.50;5064203;28;20529;-76
2023/12/05 06:18:48;;;;;;;32.63;17.75;;;;;;;5.16;90.00;99812.91;5061344;28;20464;-76
2023/12/05 06:21:13;;;;;;;40.03;20.42;;;;;;;5.17;89.85;99813.75;5060705;28;20043;-76
2023/12/05 06:23:38;;;;;;;36.58;19.83;;;;;;;5.17;89.83;99819.00;5065773;28;20112;-72
2023/12/05 06:26:04;;;;;;;39.13;19.75;;;;;;;5.17;89.93;99819.00;5061156;28;20021;-72
2023/12/05 06:28:30;;;;;;;34.20;18.15;;;;;;;5.16;89.75;99817.28;5062726;28;20026;-72
2023/12/05 06:30:56;;;;;;;35.45;19.17;;;;;;;5.22;89.78;99815.31;5065526;28;20085;-72
2023/12/05 06:33:21;;;;;;;37.80;19.42;;;;;;;5.19;89.76;99819.81;5063291;28;20465;-72
2023/12/05 06:35:46;;;;;;;37.67;19.63;;;;;;;5.19;89.86;99825.91;5063461;28;20051;-72
2023/12/05 06:38:13;;;;;;;37.22;19.20;;;;;;;5.22;89.66;99824.94;5063591;28;20026;-73
2023/12/05 06:40:38;;;;;;;35.70;18.20;;;;;;;5.20;89.87;99832.84;5059693;28;20404;-73
2023/12/05 06:43:03;;;;;;;34.85;18.98;;;;;;;5.21;89.79;99829.31;5060724;28;20020;-73
2023/12/05 06:45:29;;;;;;;36.65;18.98;;;;;;;5.20;89.93;99837.25;5060950;28;20029;-72
2023/12/05 06:47:54;;;;;;;36.58;19.02;;;;;;;5.20;89.89;99843.31;5060689;28;20052;-73
2023/12/05 06:50:19;;;;;;;36.35;17.95;;;;;;;5.19;90.05;99843.41;5056838;28;20032;-73
2023/12/05 06:52:45;;;;;;;32.17;17.55;;;;;;;5.16;89.85;99844.34;5058310;28;20021;-72
2023/12/05 06:55:10;;;;;;;35.20;18.42;;;;;;;5.11;89.97;99847.09;5058086;28;20104;-72
2023/12/05 06:57:36;;;;;;;30.15;15.70;;;;;;;5.04;90.48;99847.38;5057162;28;20071;-73
2023/12/05 07:00:03;;;;;;;30.92;17.25;;;;;;;4.97;90.56;99857.19;5057842;28;20055;-73
2023/12/05 07:02:29;;;;;;;32.92;17.90;;;;;;;4.94;90.60;99857.28;5065252;28;20328;-73
2023/12/05 07:04:57;;;;;;;32.10;16.65;;;;;;;5.01;90.37;99866.66;5057082;28;20434;-73
2023/12/05 07:07:24;;;;;;;32.53;17.55;;;;;;;5.01;90.49;99864.06;5065535;28;20033;-73
2023/12/05 07:09:50;;;;;;;35.17;17.88;;;;;;;5.01;90.63;99864.06;5056825;28;20501;-73
2023/12/05 07:12:15;;;;;;;34.20;18.30;;;;;;;5.01;90.28;99869.28;5065104;28;20107;-73
2023/12/05 07:14:41;;;;;;;35.25;17.70;;;;;;;5.02;90.55;99876.22;5061791;28;20020;-73
2023/12/05 07:17:06;;;;;;;33.40;17.77;;;;;;;4.99;90.36;99881.59;5065165;28;20077;-73
2023/12/05 07:19:31;;;;;;;33.85;17.67;;;;;;;4.98;90.49;99879.00;5063880;28;20085;-73
2023/12/05 07:21:57;;;;;;;33.80;17.52;;;;;;;4.99;90.12;99885.94;5059064;28;20156;-73
2023/12/05 07:24:22;;;;;;;35.80;17.80;;;;;;;4.97;90.55;99886.00;5060924;28;20040;-73
2023/12/05 07:26:48;;;;;;;36.47;17.52;;;;;;;4.99;90.38;99899.03;5059907;28;20092;-73
2023/12/05 07:29:13;;;;;;;34.63;17.92;;;;;;;5.00;90.10;99892.94;5060588;28;20020;-73
2023/12/05 07:31:39;;;;;;;32.20;18.05;;;;;;;4.98;90.30;99897.34;5058610;28;20016;-73
2023/12/05 07:34:05;;;;;;;32.90;17.50;;;;;;;4.95;90.14;99898.31;5066713;28;20054;-78
2023/12/05 07:36:30;;;;;;;33.63;17.83;;;;;;;4.95;90.03;99898.31;5063509;28;20368;-77
2023/12/05 07:38:55;;;;;;;37.17;17.67;;;;;;;4.92;90.41;99902.78;5063735;28;20032;-77
2023/12/05 07:41:22;;;;;;;31.95;17.30;;;;;;;4.95;90.06;99900.94;5063736;28;20025;-76
2023/12/05 07:43:49;;;;;;;36.63;18.10;;;;;;;4.92;89.89;99905.41;5058077;28;20067;-75
2023/12/05 07:46:15;;;;;;;37.80;18.73;;;;;;;4.89;89.90;99911.56;5061080;28;20040;-77
2023/12/05 07:48:41;;;;;;;35.45;18.05;;;;;;;4.86;89.98;99907.31;5061138;28;20029;-76
2023/12/05 07:51:06;;;;;;;33.78;17.33;;;;;;;4.86;89.96;99919.56;5057303;28;20031;-76
2023/12/05 07:53:32;;;;;;;38.17;19.17;;;;;;;4.85;89.88;99920.47;5060596;28;20031;-77
2023/12/05 07:55:57;;;;;;;37.45;19.60;;;;;;;4.84;89.99;99926.59;5068165;28;20033;-77
2023/12/05 07:58:22;;;;;;;35.70;18.70;;;;;;;4.83;90.10;99932.72;5061201;28;20025;-77
2023/12/05 08:00:48;;;;;;;35.97;17.02;;;;;;;4.85;89.87;99941.41;5058655;28;20040;-77
2023/12/05 08:03:14;;;;;;;38.28;18.67;;;;;;;4.88;89.89;99950.91;5058758;28;20021;-77
2023/12/05 08:05:40;;;;;;;40.08;18.52;;;;;;;4.86;89.67;99938.75;5056060;28;20033;-77
2023/12/05 08:08:05;;;;;;;31.75;17.60;;;;;;;4.90;89.76;99955.22;5065965;28;20032;-77
2023/12/05 08:10:30;;;;;;;32.75;16.48;;;;;;;4.92;89.51;99958.63;5054271;28;20507;-77
2023/12/05 08:12:56;;;;;;;34.20;17.50;;;;;;;4.91;89.75;99962.16;5061899;28;20028;-77
2023/12/05 08:15:21;;;;;;;34.88;18.55;;;;;;;4.89;89.50;99963.97;5058391;28;20538;-77
2023/12/05 08:17:46;;;;;;;40.15;19.20;;;;;;;4.85;89.67;99972.84;5063893;28;20086;-77
2023/12/05 08:20:12;;;;;;;36.38;18.52;;;;;;;4.83;89.64;99964.16;5058366;28;20031;-76
2023/12/05 08:22:37;;;;;;;31.90;17.67;;;;;;;4.82;89.42;99973.78;5061711;28;20020;-77
2023/12/05 08:25:03;;;;;;;36.05;17.67;;;;;;;4.81;89.68;99979.94;5055596;28;20027;-77
2023/12/05 08:27:28;;;;;;;34.53;18.50;;;;;;;4.81;89.24;99976.47;5061190;28;20403;-77
2023/12/05 08:29:54;;;;;;;36.00;19.42;;;;;;;4.79;89.70;99991.34;5056152;28;20025;-76
2023/12/05 08:32:19;;;;;;;40.80;19.50;;;;;;;4.78;89.54;99987.88;5062901;28;20134;-78
2023/12/05 08:34:44;;;;;;;33.63;18.30;;;;;;;4.76;89.49;99992.31;5053884;28;20037;-77
2023/12/05 08:37:10;;;;;;;36.05;18.35;;;;;;;4.73;89.32;99999.38;5062514;28;20094;-77
2023/12/05 08:39:35;;;;;;;37.40;18.42;;;;;;;4.76;89.20;99997.53;5057398;28;20020;-76
2023/12/05 08:42:01;;;;;;;37.97;18.23;;;;;;;4.79;89.22;100004.44;5053595;28;20118;-77
2023/12/05 08:44:27;;;;;;;39.40;19.15;;;;;;;4.78;89.08;100003.56;5061926;28;20024;-77
2023/12/05 08:46:52;;;;;;;35.47;18.17;;;;;;;4.79;88.98;100007.03;5070090;28;20368;-76
2023/12/05 08:49:17;;;;;;;38.30;19.13;;;;;;;4.77;89.02;100008.88;5058351;28;20034;-77
2023/12/05 08:51:43;;;;;;;35.67;18.55;;;;;;;4.76;89.32;100012.41;5063122;28;20070;-76
2023/12/05 08:54:08;;;;;;;36.58;18.60;;;;;;;4.73;88.85;100007.25;5064375;28;20365;-76
2023/12/05 08:56:33;;;;;;;38.95;19.58;;;;;;;4.74;89.02;100006.31;5058480;28;20443;-76
2023/12/05 08:58:59;;;;;;;35.45;17.20;;;;;;;4.74;89.08;100006.31;5053126;28;20404;-76
2023/12/05 09:01:25;;;;;;;37.47;18.90;;;;;;;4.72;89.05;100010.78;5061723;28;20024;-76
2023/12/05 09:03:51;;;;;;;38.00;19.30;;;;;;;4.73;88.89;100015.94;5056975;28;20017;-73
2023/12/05 09:06:16;;;;;;;36.22;17.67;;;;;;;4.76;88.70;100007.16;5058500;28;20035;-73
2023/12/05 09:08:41;;;;;;;36.45;18.52;;;;;;;4.74;88.88;100016.81;5057779;28;20040;-73
2023/12/05 09:11:07;;;;;;;41.65;19.23;;;;;;;4.73;88.91;100018.56;5059941;28;20028;-73
2023/12/05 09:13:33;;;;;;;35.20;18.48;;;;;;;4.79;88.79;100021.00;5061863;28;20517;-73
2023/12/05 09:15:59;;;;;;;37.30;18.70;;;;;;;4.83;88.74;100030.47;5059968;28;20025;-74
2023/12/05 09:18:24;;;;;;;40.40;19.30;;;;;;;4.94;88.34;100034.53;5059451;28;20290;-74
2023/12/05 09:20:53;;;;;;;39.92;18.95;;;;;;;4.93;88.25;100035.44;5063838;28;20056;-74
2023/12/05 09:23:19;;;;;;;38.28;19.13;;;;;;;4.94;88.04;100031.91;5058926;28;20468;-74
2023/12/05 09:25:44;;;;;;;37.17;18.63;;;;;;;4.91;88.13;100032.88;5059606;28;20098;-73
2023/12/05 09:28:09;;;;;;;39.83;19.98;;;;;;;4.88;88.40;100040.81;5057608;28;20115;-73
2023/12/05 09:30:35;;;;;;;35.60;17.83;;;;;;;4.93;88.42;100038.91;5063091;28;20024;-74
2023/12/05 09:33:01;;;;;;;39.28;19.10;;;;;;;4.96;88.55;100045.84;5059144;28;20439;-73
2023/12/05 09:35:26;;;;;;;34.45;18.23;;;;;;;4.99;88.77;100053.59;5054330;28;20592;-74
2023/12/05 09:37:52;;;;;;;34.42;16.70;;;;;;;5.05;88.82;100062.13;5056428;28;20029;-74
2023/12/05 09:40:17;;;;;;;35.53;18.63;;;;;;;5.08;88.80;100054.19;5058920;28;20025;-74
2023/12/05 09:42:47;;;;;;;36.22;17.00;;;;;;;5.09;88.64;100053.28;5058547;28;20036;-73
2023/12/05 09:45:15;;;;;;;35.40;18.38;;;;;;;5.15;88.25;100059.25;5056688;28;20051;-73
2023/12/05 09:47:45;;;;;;;36.97;17.83;;;;;;;5.10;88.42;100073.34;5062799;28;20060;-73
2023/12/05 09:50:11;;;;;;;39.08;18.17;;;;;;;5.17;88.32;100070.53;5054909;28;20496;-73
2023/12/05 09:52:37;;;;;;;34.42;17.00;;;;;;;5.22;88.32;100072.13;5064819;28;20051;-73
2023/12/05 09:55:03;;;;;;;34.83;18.17;;;;;;;5.24;88.10;100072.91;5062683;28;20099;-76
2023/12/05 09:57:29;;;;;;;34.78;17.30;;;;;;;5.26;88.37;100080.72;5060197;28;20088;-77
2023/12/05 09:59:55;;;;;;;39.17;19.33;;;;;;;5.29;87.48;100078.03;5060078;28;20108;-76
2023/12/05 10:02:23;;;;;;;38.60;19.00;;;;;;;5.33;87.43;100079.66;5067324;28;20388;-77
2023/12/05 10:04:54;;;;;;;37.67;18.60;;;;;;;5.29;87.08;100080.63;5059912;28;20420;-76
2023/12/05 10:07:21;;;;;;;39.25;18.50;;;;;;;5.31;87.32;100081.44;5062336;28;20024;-76
2023/12/05 10:09:50;;;;;;;42.25;20.10;;;;;;;5.32;87.42;100089.28;5059325;28;20031;-76
2023/12/05 10:12:15;;;;;;;39.78;18.65;;;;;;;5.35;87.44;100093.53;5060097;28;20016;-77
2023/12/05 10:14:41;;;;;;;43.33;19.58;;;;;;;5.37;87.05;100099.63;5059106;28;20455;-76
2023/12/05 10:17:09;;;;;;;35.60;18.08;;;;;;;5.29;87.20;100097.22;5058128;28;20112;-77
2023/12/05 10:19:35;;;;;;;38.00;18.42;;;;;;;5.31;87.05;100105.03;5052734;28;20029;-75
2023/12/05 10:22:01;;;;;;;39.42;18.77;;;;;;;5.32;87.34;100109.38;5055456;28;20025;-76
2023/12/05 10:24:43;;;;;;;42.70;19.30;;;;;;;5.38;87.42;100114.44;5057630;28;20070;-76
2023/12/05 10:27:08;;;;;;;34.92;18.02;;;;;;;5.31;87.02;100108.50;5063297;28;20028;-76
2023/12/05 10:29:41;;;;;;;39.10;18.45;;;;;;;5.35;87.23;100111.88;5065375;28;20039;-76
2023/12/05 10:32:08;;;;;;;41.58;18.23;;;;;;;5.34;87.29;100111.03;5065510;28;20024;-75
2023/12/05 10:34:46;;;;;;;38.00;17.23;;;;;;;5.32;87.28;100114.63;5054336;28;20032;-76
2023/12/05 10:37:12;;;;;;;36.10;17.27;;;;;;;5.30;87.37;100116.41;5055632;28;20468;-76
2023/12/05 10:39:37;;;;;;;33.78;16.80;;;;;;;5.29;87.24;100114.72;5058526;28;20035;-76
2023/12/05 10:42:03;;;;;;;37.50;18.40;;;;;;;5.34;87.47;100123.28;5061569;28;20107;-76
2023/12/05 10:44:37;;;;;;;32.97;16.02;;;;;;;5.31;87.13;100120.75;5058453;28;20108;-76
2023/12/05 10:47:02;;;;;;;32.22;16.08;;;;;;;5.26;87.08;100125.28;5051584;28;20037;-77
2023/12/05 10:49:30;;;;;;;32.20;15.75;;;;;;;5.21;87.23;100127.16;5064658;28;20035;-76
2023/12/05 10:51:55;;;;;;;30.30;16.08;;;;;;;5.31;87.09;100126.00;5056696;28;20032;-76
2023/12/05 10:54:21;;;;;;;28.08;14.63;;;;;;;5.31;86.94;100124.22;5057638;28;20419;-76
2023/12/05 10:56:57;;;;;;;25.30;14.25;;;;;;;5.35;87.19;100132.84;5054135;28;20053;-75
2023/12/05 10:59:27;;;;;;;27.30;14.23;;;;;;;5.27;86.69;100143.59;5055836;28;20059;-76
2023/12/05 11:01:55;;;;;;;29.77;15.23;;;;;;;5.27;87.11;100140.97;5062052;28;20455;-76
2023/12/05 11:04:23;;;;;;;30.40;15.23;;;;;;;5.24;87.03;100143.66;5059369;28;20152;-75
2023/12/05 11:06:49;;;;;;;29.08;15.70;;;;;;;5.23;86.95;100146.34;5055892;28;20040;-76
2023/12/05 11:09:15;;;;;;;27.85;14.63;;;;;;;5.16;86.56;100143.03;5054638;28;20033;-76
2023/12/05 11:11:44;;;;;;;30.42;14.82;;;;;;;5.16;87.05;100148.28;5050489;28;20020;-75
2023/12/05 11:14:14;;;;;;;32.65;15.43;;;;;;;5.19;86.82;100152.56;5056118;28;20025;-76
2023/12/05 11:16:45;;;;;;;28.40;14.05;;;;;;;5.21;86.60;100151.59;5056041;28;20555;-76
2023/12/05 11:19:18;;;;;;;20.55;11.73;;;;;;;5.21;86.53;100156.00;5056540;28;20475;-76